sensor_id;sensor_type;location;lat;lon;timestamp;P1;durP1;ratioP1;P2;durP2;ratioP2
11303;SDS011;5707;49.588;12.148;2022-11-20T00:00:55;16.63;;;15.30;;
11303;SDS011;5707;49.588;12.148;2022-11-20T00:03:20;15.68;;;14.40;;
11303;SDS011;5707;49.588;12.148;2022-11-20T00:05:46;16.60;;;15.25;;
11303;SDS011;5707;49.588;12.148;2022-11-20T00:08:12;17.48;;;16.15;;
11303;SDS011;5707;49.588;12.148;2022-11-20T00:10:38;17.35;;;15.85;;
11303;SDS011;5707;49.588;12.148;2022-11-20T00:13:05;16.33;;;15.00;;
11303;SDS011;5707;49.588;12.148;2022-11-20T00:15:32;16.75;;;15.43;;
11303;SDS011;5707;49.588;12.148;2022-11-20T00:17:58;16.23;;;14.85;;
11303;SDS011;5707;49.588;12.148;2022-11-20T00:20:24;16.25;;;14.95;;
11303;SDS011;5707;49.588;12.148;2022-11-20T00:22:50;15.80;;;14.50;;
11303;SDS011;5707;49.588;12.148;2022-11-20T00:25:16;16.20;;;14.85;;
11303;SDS011;5707;49.588;12.148;2022-11-20T00:27:41;16.23;;;14.90;;
11303;SDS011;5707;49.588;12.148;2022-11-20T00:30:07;16.17;;;14.88;;
11303;SDS011;5707;49.588;12.148;2022-11-20T00:32:33;16.23;;;14.80;;
11303;SDS011;5707;49.588;12.148;2022-11-20T00:34:59;16.67;;;15.43;;
11303;SDS011;5707;49.588;12.148;2022-11-20T00:37:25;17.05;;;15.43;;
11303;SDS011;5707;49.588;12.148;2022-11-20T00:39:50;18.38;;;16.77;;
11303;SDS011;5707;49.588;12.148;2022-11-20T00:42:16;16.48;;;15.27;;
11303;SDS011;5707;49.588;12.148;2022-11-20T00:44:42;16.55;;;15.23;;
11303;SDS011;5707;49.588;12.148;2022-11-20T00:47:07;18.90;;;17.30;;
11303;SDS011;5707;49.588;12.148;2022-11-20T00:49:33;22.35;;;20.33;;
11303;SDS011;5707;49.588;12.148;2022-11-20T00:51:58;20.15;;;18.48;;
11303;SDS011;5707;49.588;12.148;2022-11-20T00:54:24;19.73;;;18.02;;
11303;SDS011;5707;49.588;12.148;2022-11-20T00:56:52;17.92;;;16.42;;
11303;SDS011;5707;49.588;12.148;2022-11-20T00:59:18;16.90;;;15.23;;
11303;SDS011;5707;49.588;12.148;2022-11-20T01:01:43;18.48;;;16.88;;
11303;SDS011;5707;49.588;12.148;2022-11-20T01:04:09;18.17;;;16.70;;
11303;SDS011;5707;49.588;12.148;2022-11-20T01:06:36;18.33;;;16.77;;
11303;SDS011;5707;49.588;12.148;2022-11-20T01:09:04;17.95;;;16.55;;
11303;SDS011;5707;49.588;12.148;2022-11-20T01:11:32;18.10;;;16.58;;
11303;SDS011;5707;49.588;12.148;2022-11-20T01:14:03;17.52;;;16.00;;
11303;SDS011;5707;49.588;12.148;2022-11-20T01:16:32;19.45;;;17.73;;
11303;SDS011;5707;49.588;12.148;2022-11-20T01:19:12;17.30;;;15.80;;
11303;SDS011;5707;49.588;12.148;2022-11-20T01:21:40;18.02;;;16.42;;
11303;SDS011;5707;49.588;12.148;2022-11-20T01:24:07;17.95;;;16.33;;
11303;SDS011;5707;49.588;12.148;2022-11-20T01:26:36;17.42;;;15.93;;
11303;SDS011;5707;49.588;12.148;2022-11-20T01:29:04;17.63;;;16.13;;
11303;SDS011;5707;49.588;12.148;2022-11-20T01:31:31;16.98;;;15.65;;
11303;SDS011;5707;49.588;12.148;2022-11-20T01:34:00;17.40;;;15.82;;
11303;SDS011;5707;49.588;12.148;2022-11-20T01:38:58;16.10;;;14.73;;
11303;SDS011;5707;49.588;12.148;2022-11-20T01:41:25;16.88;;;15.45;;
11303;SDS011;5707;49.588;12.148;2022-11-20T01:44:12;16.80;;;15.40;;
11303;SDS011;5707;49.588;12.148;2022-11-20T01:46:40;16.40;;;15.10;;
11303;SDS011;5707;49.588;12.148;2022-11-20T01:49:25;17.65;;;16.10;;
11303;SDS011;5707;49.588;12.148;2022-11-20T01:51:56;17.05;;;15.65;;
11303;SDS011;5707;49.588;12.148;2022-11-20T01:54:36;17.10;;;15.52;;
11303;SDS011;5707;49.588;12.148;2022-11-20T01:57:07;17.63;;;16.13;;
11303;SDS011;5707;49.588;12.148;2022-11-20T01:59:42;18.10;;;16.50;;
11303;SDS011;5707;49.588;12.148;2022-11-20T02:02:12;17.95;;;16.35;;
11303;SDS011;5707;49.588;12.148;2022-11-20T02:04:39;17.90;;;16.40;;
11303;SDS011;5707;49.588;12.148;2022-11-20T02:07:05;17.58;;;15.90;;
11303;SDS011;5707;49.588;12.148;2022-11-20T02:09:31;17.27;;;15.73;;
11303;SDS011;5707;49.588;12.148;2022-11-20T02:11:56;17.08;;;15.57;;
11303;SDS011;5707;49.588;12.148;2022-11-20T02:14:23;18.27;;;16.63;;
11303;SDS011;5707;49.588;12.148;2022-11-20T02:16:50;17.98;;;16.38;;
11303;SDS011;5707;49.588;12.148;2022-11-20T02:21:59;17.40;;;15.80;;
11303;SDS011;5707;49.588;12.148;2022-11-20T02:24:25;17.33;;;15.77;;
11303;SDS011;5707;49.588;12.148;2022-11-20T02:27:01;17.90;;;16.27;;
11303;SDS011;5707;49.588;12.148;2022-11-20T02:29:50;18.83;;;17.13;;
11303;SDS011;5707;49.588;12.148;2022-11-20T02:32:19;17.52;;;15.93;;
11303;SDS011;5707;49.588;12.148;2022-11-20T02:34:45;19.90;;;18.10;;
11303;SDS011;5707;49.588;12.148;2022-11-20T02:37:11;19.40;;;17.60;;
11303;SDS011;5707;49.588;12.148;2022-11-20T02:39:37;17.63;;;16.13;;
11303;SDS011;5707;49.588;12.148;2022-11-20T02:42:03;18.02;;;16.35;;
11303;SDS011;5707;49.588;12.148;2022-11-20T02:44:29;17.23;;;15.65;;
11303;SDS011;5707;49.588;12.148;2022-11-20T02:46:56;19.05;;;17.35;;
11303;SDS011;5707;49.588;12.148;2022-11-20T02:49:23;19.00;;;17.40;;
11303;SDS011;5707;49.588;12.148;2022-11-20T02:51:49;17.73;;;16.10;;
11303;SDS011;5707;49.588;12.148;2022-11-20T02:54:14;17.25;;;15.85;;
11303;SDS011;5707;49.588;12.148;2022-11-20T02:56:40;19.13;;;17.08;;
11303;SDS011;5707;49.588;12.148;2022-11-20T02:59:06;19.20;;;17.45;;
11303;SDS011;5707;49.588;12.148;2022-11-20T03:01:32;17.35;;;15.95;;
11303;SDS011;5707;49.588;12.148;2022-11-20T03:03:58;19.00;;;17.40;;
11303;SDS011;5707;49.588;12.148;2022-11-20T03:06:23;18.27;;;16.58;;
11303;SDS011;5707;49.588;12.148;2022-11-20T03:08:49;17.90;;;16.40;;
11303;SDS011;5707;49.588;12.148;2022-11-20T03:11:15;18.25;;;16.67;;
11303;SDS011;5707;49.588;12.148;2022-11-20T03:13:40;19.48;;;17.60;;
11303;SDS011;5707;49.588;12.148;2022-11-20T03:16:13;19.05;;;17.38;;
11303;SDS011;5707;49.588;12.148;2022-11-20T03:18:41;18.48;;;16.98;;
11303;SDS011;5707;49.588;12.148;2022-11-20T03:21:07;18.25;;;16.65;;
11303;SDS011;5707;49.588;12.148;2022-11-20T03:23:34;18.77;;;16.98;;
11303;SDS011;5707;49.588;12.148;2022-11-20T03:28:37;18.63;;;17.00;;
11303;SDS011;5707;49.588;12.148;2022-11-20T03:31:06;19.77;;;17.98;;
11303;SDS011;5707;49.588;12.148;2022-11-20T03:33:37;19.60;;;17.85;;
11303;SDS011;5707;49.588;12.148;2022-11-20T03:36:04;19.35;;;17.58;;
11303;SDS011;5707;49.588;12.148;2022-11-20T03:38:31;19.25;;;17.50;;
11303;SDS011;5707;49.588;12.148;2022-11-20T03:41:09;19.65;;;17.85;;
11303;SDS011;5707;49.588;12.148;2022-11-20T03:43:37;19.20;;;17.40;;
11303;SDS011;5707;49.588;12.148;2022-11-20T03:46:04;20.50;;;18.50;;
11303;SDS011;5707;49.588;12.148;2022-11-20T03:48:30;21.27;;;19.02;;
11303;SDS011;5707;49.588;12.148;2022-11-20T03:51:06;20.35;;;18.25;;
11303;SDS011;5707;49.588;12.148;2022-11-20T03:53:40;21.10;;;19.13;;
11303;SDS011;5707;49.588;12.148;2022-11-20T03:56:07;21.58;;;19.55;;
11303;SDS011;5707;49.588;12.148;2022-11-20T03:58:37;20.35;;;18.38;;
11303;SDS011;5707;49.588;12.148;2022-11-20T04:03:38;20.13;;;18.20;;
11303;SDS011;5707;49.588;12.148;2022-11-20T04:06:05;19.25;;;17.63;;
11303;SDS011;5707;49.588;12.148;2022-11-20T04:08:33;19.58;;;17.77;;
11303;SDS011;5707;49.588;12.148;2022-11-20T04:11:17;19.38;;;17.67;;
11303;SDS011;5707;49.588;12.148;2022-11-20T04:13:48;18.48;;;16.77;;
11303;SDS011;5707;49.588;12.148;2022-11-20T04:16:19;19.27;;;17.48;;
11303;SDS011;5707;49.588;12.148;2022-11-20T04:18:45;18.75;;;17.00;;
11303;SDS011;5707;49.588;12.148;2022-11-20T04:21:11;18.85;;;17.15;;
11303;SDS011;5707;49.588;12.148;2022-11-20T04:23:37;21.63;;;19.50;;
11303;SDS011;5707;49.588;12.148;2022-11-20T04:26:07;20.60;;;18.60;;
11303;SDS011;5707;49.588;12.148;2022-11-20T04:28:34;20.30;;;18.40;;
11303;SDS011;5707;49.588;12.148;2022-11-20T04:31:01;20.42;;;18.35;;
11303;SDS011;5707;49.588;12.148;2022-11-20T04:33:31;21.15;;;19.05;;
11303;SDS011;5707;49.588;12.148;2022-11-20T04:36:02;20.20;;;18.33;;
11303;SDS011;5707;49.588;12.148;2022-11-20T04:38:29;19.67;;;17.83;;
11303;SDS011;5707;49.588;12.148;2022-11-20T04:40:58;19.70;;;17.77;;
11303;SDS011;5707;49.588;12.148;2022-11-20T04:43:25;20.35;;;18.25;;
11303;SDS011;5707;49.588;12.148;2022-11-20T04:45:52;20.13;;;18.25;;
11303;SDS011;5707;49.588;12.148;2022-11-20T04:48:18;19.50;;;17.80;;
11303;SDS011;5707;49.588;12.148;2022-11-20T04:50:44;19.17;;;17.48;;
11303;SDS011;5707;49.588;12.148;2022-11-20T04:53:10;19.52;;;17.73;;
11303;SDS011;5707;49.588;12.148;2022-11-20T04:55:35;19.40;;;17.80;;
11303;SDS011;5707;49.588;12.148;2022-11-20T04:58:01;18.63;;;16.95;;
11303;SDS011;5707;49.588;12.148;2022-11-20T05:00:26;19.17;;;17.40;;
11303;SDS011;5707;49.588;12.148;2022-11-20T05:02:52;19.17;;;17.48;;
11303;SDS011;5707;49.588;12.148;2022-11-20T05:05:18;19.23;;;17.52;;
11303;SDS011;5707;49.588;12.148;2022-11-20T05:07:43;18.05;;;16.35;;
11303;SDS011;5707;49.588;12.148;2022-11-20T05:10:09;20.23;;;18.33;;
11303;SDS011;5707;49.588;12.148;2022-11-20T05:12:35;18.75;;;16.98;;
11303;SDS011;5707;49.588;12.148;2022-11-20T05:15:00;19.02;;;17.27;;
11303;SDS011;5707;49.588;12.148;2022-11-20T05:17:26;20.83;;;18.63;;
11303;SDS011;5707;49.588;12.148;2022-11-20T05:19:51;19.75;;;17.92;;
11303;SDS011;5707;49.588;12.148;2022-11-20T05:22:17;20.50;;;18.60;;
11303;SDS011;5707;49.588;12.148;2022-11-20T05:24:43;20.75;;;18.77;;
11303;SDS011;5707;49.588;12.148;2022-11-20T05:27:08;19.40;;;17.65;;
11303;SDS011;5707;49.588;12.148;2022-11-20T05:29:34;18.42;;;16.65;;
11303;SDS011;5707;49.588;12.148;2022-11-20T05:31:59;20.27;;;18.38;;
11303;SDS011;5707;49.588;12.148;2022-11-20T05:34:25;18.88;;;17.00;;
11303;SDS011;5707;49.588;12.148;2022-11-20T05:36:51;19.63;;;17.70;;
11303;SDS011;5707;49.588;12.148;2022-11-20T05:39:16;20.42;;;18.42;;
11303;SDS011;5707;49.588;12.148;2022-11-20T05:41:42;17.80;;;16.17;;
11303;SDS011;5707;49.588;12.148;2022-11-20T05:44:10;20.90;;;18.77;;
11303;SDS011;5707;49.588;12.148;2022-11-20T05:46:36;18.95;;;17.15;;
11303;SDS011;5707;49.588;12.148;2022-11-20T05:49:01;17.58;;;16.08;;
11303;SDS011;5707;49.588;12.148;2022-11-20T05:51:27;20.02;;;17.95;;
11303;SDS011;5707;49.588;12.148;2022-11-20T05:53:53;18.30;;;16.60;;
11303;SDS011;5707;49.588;12.148;2022-11-20T05:56:22;19.67;;;17.40;;
11303;SDS011;5707;49.588;12.148;2022-11-20T05:58:48;19.27;;;17.38;;
11303;SDS011;5707;49.588;12.148;2022-11-20T06:01:16;21.65;;;19.45;;
11303;SDS011;5707;49.588;12.148;2022-11-20T06:03:46;21.48;;;19.38;;
11303;SDS011;5707;49.588;12.148;2022-11-20T06:06:13;21.75;;;19.67;;
11303;SDS011;5707;49.588;12.148;2022-11-20T06:08:39;20.80;;;18.80;;
11303;SDS011;5707;49.588;12.148;2022-11-20T06:11:06;20.02;;;18.17;;
11303;SDS011;5707;49.588;12.148;2022-11-20T06:13:33;19.92;;;18.08;;
11303;SDS011;5707;49.588;12.148;2022-11-20T06:16:00;19.25;;;17.60;;
11303;SDS011;5707;49.588;12.148;2022-11-20T06:18:26;20.77;;;18.88;;
11303;SDS011;5707;49.588;12.148;2022-11-20T06:21:03;18.67;;;17.02;;
11303;SDS011;5707;49.588;12.148;2022-11-20T06:23:30;20.10;;;18.13;;
11303;SDS011;5707;49.588;12.148;2022-11-20T06:25:56;19.98;;;18.13;;
11303;SDS011;5707;49.588;12.148;2022-11-20T06:28:26;20.20;;;18.17;;
11303;SDS011;5707;49.588;12.148;2022-11-20T06:30:51;19.88;;;18.00;;
11303;SDS011;5707;49.588;12.148;2022-11-20T06:33:17;20.55;;;18.13;;
11303;SDS011;5707;49.588;12.148;2022-11-20T06:35:43;19.98;;;17.98;;
11303;SDS011;5707;49.588;12.148;2022-11-20T06:38:08;19.95;;;18.15;;
11303;SDS011;5707;49.588;12.148;2022-11-20T06:40:34;19.00;;;17.33;;
11303;SDS011;5707;49.588;12.148;2022-11-20T06:42:59;20.05;;;18.25;;
11303;SDS011;5707;49.588;12.148;2022-11-20T06:45:25;23.58;;;21.08;;
11303;SDS011;5707;49.588;12.148;2022-11-20T06:47:51;19.90;;;18.13;;
11303;SDS011;5707;49.588;12.148;2022-11-20T06:50:17;18.95;;;17.02;;
11303;SDS011;5707;49.588;12.148;2022-11-20T06:52:42;19.60;;;17.67;;
11303;SDS011;5707;49.588;12.148;2022-11-20T06:55:08;19.90;;;18.02;;
11303;SDS011;5707;49.588;12.148;2022-11-20T06:57:34;20.27;;;18.48;;
11303;SDS011;5707;49.588;12.148;2022-11-20T06:59:59;20.40;;;18.40;;
11303;SDS011;5707;49.588;12.148;2022-11-20T07:02:25;19.77;;;18.08;;
11303;SDS011;5707;49.588;12.148;2022-11-20T07:04:51;19.77;;;18.00;;
11303;SDS011;5707;49.588;12.148;2022-11-20T07:07:16;18.90;;;17.27;;
11303;SDS011;5707;49.588;12.148;2022-11-20T07:09:42;18.85;;;17.15;;
11303;SDS011;5707;49.588;12.148;2022-11-20T07:12:08;17.77;;;16.08;;
11303;SDS011;5707;49.588;12.148;2022-11-20T07:14:33;17.25;;;15.75;;
11303;SDS011;5707;49.588;12.148;2022-11-20T07:16:59;19.50;;;17.50;;
11303;SDS011;5707;49.588;12.148;2022-11-20T07:19:25;17.20;;;15.80;;
11303;SDS011;5707;49.588;12.148;2022-11-20T07:21:50;17.38;;;15.88;;
11303;SDS011;5707;49.588;12.148;2022-11-20T07:24:16;19.20;;;17.60;;
11303;SDS011;5707;49.588;12.148;2022-11-20T07:26:42;17.70;;;16.20;;
11303;SDS011;5707;49.588;12.148;2022-11-20T07:29:10;16.92;;;15.43;;
11303;SDS011;5707;49.588;12.148;2022-11-20T07:31:36;16.73;;;15.32;;
11303;SDS011;5707;49.588;12.148;2022-11-20T07:34:01;15.75;;;14.45;;
11303;SDS011;5707;49.588;12.148;2022-11-20T07:36:27;15.73;;;14.43;;
11303;SDS011;5707;49.588;12.148;2022-11-20T07:38:53;17.63;;;16.10;;
11303;SDS011;5707;49.588;12.148;2022-11-20T07:41:19;15.93;;;14.63;;
11303;SDS011;5707;49.588;12.148;2022-11-20T07:43:44;18.42;;;16.73;;
11303;SDS011;5707;49.588;12.148;2022-11-20T07:46:10;17.25;;;15.75;;
11303;SDS011;5707;49.588;12.148;2022-11-20T07:48:36;22.77;;;20.75;;
11303;SDS011;5707;49.588;12.148;2022-11-20T07:51:01;21.75;;;19.73;;
11303;SDS011;5707;49.588;12.148;2022-11-20T07:53:27;21.45;;;19.45;;
11303;SDS011;5707;49.588;12.148;2022-11-20T07:55:53;18.85;;;17.27;;
11303;SDS011;5707;49.588;12.148;2022-11-20T07:58:19;18.50;;;16.90;;
11303;SDS011;5707;49.588;12.148;2022-11-20T08:00:45;18.02;;;16.42;;
11303;SDS011;5707;49.588;12.148;2022-11-20T08:03:11;16.00;;;14.70;;
11303;SDS011;5707;49.588;12.148;2022-11-20T08:05:37;17.13;;;15.68;;
11303;SDS011;5707;49.588;12.148;2022-11-20T08:08:03;16.33;;;15.00;;
11303;SDS011;5707;49.588;12.148;2022-11-20T08:10:29;18.33;;;16.60;;
11303;SDS011;5707;49.588;12.148;2022-11-20T08:12:54;19.30;;;17.60;;
11303;SDS011;5707;49.588;12.148;2022-11-20T08:15:39;20.73;;;18.67;;
11303;SDS011;5707;49.588;12.148;2022-11-20T08:18:10;17.58;;;15.88;;
11303;SDS011;5707;49.588;12.148;2022-11-20T08:20:36;15.35;;;14.15;;
11303;SDS011;5707;49.588;12.148;2022-11-20T08:23:05;14.40;;;13.23;;
11303;SDS011;5707;49.588;12.148;2022-11-20T08:25:32;14.80;;;13.60;;
11303;SDS011;5707;49.588;12.148;2022-11-20T08:27:59;15.93;;;14.63;;
11303;SDS011;5707;49.588;12.148;2022-11-20T08:30:26;16.08;;;14.77;;
11303;SDS011;5707;49.588;12.148;2022-11-20T08:32:52;15.70;;;14.50;;
11303;SDS011;5707;49.588;12.148;2022-11-20T08:35:19;15.65;;;14.35;;
11303;SDS011;5707;49.588;12.148;2022-11-20T08:37:48;15.27;;;14.02;;
11303;SDS011;5707;49.588;12.148;2022-11-20T08:40:14;14.77;;;13.68;;
11303;SDS011;5707;49.588;12.148;2022-11-20T08:42:47;15.38;;;14.07;;
11303;SDS011;5707;49.588;12.148;2022-11-20T08:45:13;17.23;;;15.82;;
11303;SDS011;5707;49.588;12.148;2022-11-20T08:47:39;15.65;;;14.35;;
11303;SDS011;5707;49.588;12.148;2022-11-20T08:50:05;15.85;;;14.55;;
11303;SDS011;5707;49.588;12.148;2022-11-20T08:52:31;16.08;;;14.68;;
11303;SDS011;5707;49.588;12.148;2022-11-20T08:54:57;15.95;;;14.65;;
11303;SDS011;5707;49.588;12.148;2022-11-20T08:57:23;15.35;;;14.15;;
11303;SDS011;5707;49.588;12.148;2022-11-20T08:59:48;16.00;;;14.73;;
11303;SDS011;5707;49.588;12.148;2022-11-20T09:02:14;14.38;;;13.27;;
11303;SDS011;5707;49.588;12.148;2022-11-20T09:04:40;16.13;;;14.82;;
11303;SDS011;5707;49.588;12.148;2022-11-20T09:07:05;14.65;;;13.55;;
11303;SDS011;5707;49.588;12.148;2022-11-20T09:09:31;14.02;;;12.93;;
11303;SDS011;5707;49.588;12.148;2022-11-20T09:11:57;13.43;;;12.43;;
11303;SDS011;5707;49.588;12.148;2022-11-20T09:14:23;14.02;;;13.02;;
11303;SDS011;5707;49.588;12.148;2022-11-20T09:16:54;12.52;;;11.63;;
11303;SDS011;5707;49.588;12.148;2022-11-20T09:19:23;13.02;;;12.02;;
11303;SDS011;5707;49.588;12.148;2022-11-20T09:21:49;12.23;;;11.23;;
11303;SDS011;5707;49.588;12.148;2022-11-20T09:24:15;11.40;;;10.60;;
11303;SDS011;5707;49.588;12.148;2022-11-20T09:26:41;12.65;;;11.75;;
11303;SDS011;5707;49.588;12.148;2022-11-20T09:29:07;13.10;;;12.10;;
11303;SDS011;5707;49.588;12.148;2022-11-20T09:31:32;12.35;;;11.45;;
11303;SDS011;5707;49.588;12.148;2022-11-20T09:33:58;11.57;;;10.68;;
11303;SDS011;5707;49.588;12.148;2022-11-20T09:36:23;11.93;;;10.93;;
11303;SDS011;5707;49.588;12.148;2022-11-20T09:38:49;11.80;;;10.90;;
11303;SDS011;5707;49.588;12.148;2022-11-20T09:55:46;9.25;;;8.55;;
11303;SDS011;5707;49.588;12.148;2022-11-20T10:00:55;8.43;;;7.82;;
11303;SDS011;5707;49.588;12.148;2022-11-20T10:03:46;11.75;;;10.63;;
11303;SDS011;5707;49.588;12.148;2022-11-20T10:06:15;10.80;;;10.00;;
11303;SDS011;5707;49.588;12.148;2022-11-20T10:08:45;8.77;;;8.13;;
11303;SDS011;5707;49.588;12.148;2022-11-20T10:11:32;8.52;;;7.93;;
11303;SDS011;5707;49.588;12.148;2022-11-20T10:29:41;8.18;;;7.43;;
11303;SDS011;5707;49.588;12.148;2022-11-20T10:32:20;7.72;;;7.18;;
11303;SDS011;5707;49.588;12.148;2022-11-20T10:34:50;7.90;;;7.30;;
11303;SDS011;5707;49.588;12.148;2022-11-20T10:37:27;7.68;;;7.07;;
11303;SDS011;5707;49.588;12.148;2022-11-20T10:42:58;8.32;;;7.72;;
11303;SDS011;5707;49.588;12.148;2022-11-20T10:48:21;9.20;;;8.50;;
11303;SDS011;5707;49.588;12.148;2022-11-20T10:50:59;9.52;;;8.75;;
11303;SDS011;5707;49.588;12.148;2022-11-20T10:53:54;8.60;;;8.00;;
11303;SDS011;5707;49.588;12.148;2022-11-20T11:01:58;7.38;;;6.68;;
11303;SDS011;5707;49.588;12.148;2022-11-20T11:04:33;6.43;;;6.00;;
11303;SDS011;5707;49.588;12.148;2022-11-20T11:07:50;7.47;;;6.88;;
11303;SDS011;5707;49.588;12.148;2022-11-20T11:09:54;7.93;;;7.32;;
11303;SDS011;5707;49.588;12.148;2022-11-20T11:12:22;8.82;;;8.13;;
11303;SDS011;5707;49.588;12.148;2022-11-20T11:14:53;8.38;;;7.53;;
11303;SDS011;5707;49.588;12.148;2022-11-20T11:17:30;8.32;;;7.72;;
11303;SDS011;5707;49.588;12.148;2022-11-20T11:20:03;8.15;;;7.45;;
11303;SDS011;5707;49.588;12.148;2022-11-20T11:22:42;11.82;;;11.02;;
11303;SDS011;5707;49.588;12.148;2022-11-20T11:25:19;10.07;;;9.38;;
11303;SDS011;5707;49.588;12.148;2022-11-20T11:27:46;7.78;;;7.18;;
11303;SDS011;5707;49.588;12.148;2022-11-20T11:30:17;8.88;;;8.18;;
11303;SDS011;5707;49.588;12.148;2022-11-20T11:32:43;9.40;;;8.68;;
11303;SDS011;5707;49.588;12.148;2022-11-20T11:35:23;10.75;;;9.95;;
11303;SDS011;5707;49.588;12.148;2022-11-20T11:37:51;10.90;;;10.07;;
11303;SDS011;5707;49.588;12.148;2022-11-20T11:40:19;11.82;;;10.90;;
11303;SDS011;5707;49.588;12.148;2022-11-20T11:42:49;11.73;;;10.93;;
11303;SDS011;5707;49.588;12.148;2022-11-20T11:45:19;11.90;;;10.93;;
11303;SDS011;5707;49.588;12.148;2022-11-20T11:47:46;10.30;;;9.57;;
11303;SDS011;5707;49.588;12.148;2022-11-20T11:52:43;10.38;;;9.27;;
11303;SDS011;5707;49.588;12.148;2022-11-20T11:55:20;8.60;;;7.90;;
11303;SDS011;5707;49.588;12.148;2022-11-20T12:00:36;6.43;;;5.93;;
11303;SDS011;5707;49.588;12.148;2022-11-20T12:05:48;6.90;;;6.40;;
11303;SDS011;5707;49.588;12.148;2022-11-20T12:08:23;7.30;;;6.80;;
11303;SDS011;5707;49.588;12.148;2022-11-20T12:11:03;6.47;;;5.97;;
11303;SDS011;5707;49.588;12.148;2022-11-20T12:13:53;7.32;;;6.82;;
11303;SDS011;5707;49.588;12.148;2022-11-20T12:16:23;6.25;;;5.78;;
11303;SDS011;5707;49.588;12.148;2022-11-20T12:18:50;6.30;;;5.80;;
11303;SDS011;5707;49.588;12.148;2022-11-20T12:21:18;6.82;;;6.38;;
11303;SDS011;5707;49.588;12.148;2022-11-20T12:23:49;6.70;;;6.20;;
11303;SDS011;5707;49.588;12.148;2022-11-20T12:29:26;7.10;;;6.60;;
11303;SDS011;5707;49.588;12.148;2022-11-20T12:42:50;8.70;;;8.10;;
11303;SDS011;5707;49.588;12.148;2022-11-20T12:48:36;11.52;;;10.73;;
11303;SDS011;5707;49.588;12.148;2022-11-20T13:00:01;3.45;;;3.25;;
11303;SDS011;5707;49.588;12.148;2022-11-20T13:02:44;4.20;;;3.90;;
11303;SDS011;5707;49.588;12.148;2022-11-20T13:05:43;4.30;;;3.70;;
11303;SDS011;5707;49.588;12.148;2022-11-20T13:08:55;4.25;;;3.95;;
11303;SDS011;5707;49.588;12.148;2022-11-20T13:14:24;3.22;;;3.03;;
11303;SDS011;5707;49.588;12.148;2022-11-20T13:17:19;3.03;;;2.83;;
11303;SDS011;5707;49.588;12.148;2022-11-20T13:19:54;4.25;;;3.97;;
11303;SDS011;5707;49.588;12.148;2022-11-20T13:22:27;3.78;;;3.58;;
11303;SDS011;5707;49.588;12.148;2022-11-20T13:24:54;3.80;;;3.60;;
11303;SDS011;5707;49.588;12.148;2022-11-20T13:27:23;3.40;;;3.20;;
11303;SDS011;5707;49.588;12.148;2022-11-20T13:30:10;3.40;;;3.20;;
11303;SDS011;5707;49.588;12.148;2022-11-20T13:32:50;4.15;;;3.85;;
11303;SDS011;5707;49.588;12.148;2022-11-20T13:35:32;3.70;;;3.40;;
11303;SDS011;5707;49.588;12.148;2022-11-20T13:40:29;3.80;;;3.50;;
11303;SDS011;5707;49.588;12.148;2022-11-20T13:45:28;3.45;;;3.25;;
11303;SDS011;5707;49.588;12.148;2022-11-20T13:47:56;3.60;;;3.40;;
11303;SDS011;5707;49.588;12.148;2022-11-20T14:01:20;4.30;;;4.00;;
11303;SDS011;5707;49.588;12.148;2022-11-20T14:03:48;3.88;;;3.58;;
11303;SDS011;5707;49.588;12.148;2022-11-20T14:06:25;3.78;;;3.47;;
11303;SDS011;5707;49.588;12.148;2022-11-20T14:08:56;3.53;;;3.22;;
11303;SDS011;5707;49.588;12.148;2022-11-20T14:11:24;3.17;;;2.97;;
11303;SDS011;5707;49.588;12.148;2022-11-20T14:14:02;3.03;;;2.83;;
11303;SDS011;5707;49.588;12.148;2022-11-20T14:16:29;2.88;;;2.67;;
11303;SDS011;5707;49.588;12.148;2022-11-20T14:19:17;3.05;;;2.85;;
11303;SDS011;5707;49.588;12.148;2022-11-20T14:21:45;2.40;;;2.30;;
11303;SDS011;5707;49.588;12.148;2022-11-20T14:24:12;2.30;;;2.20;;
11303;SDS011;5707;49.588;12.148;2022-11-20T14:26:41;2.10;;;2.00;;
11303;SDS011;5707;49.588;12.148;2022-11-20T14:29:12;2.63;;;2.42;;
11303;SDS011;5707;49.588;12.148;2022-11-20T14:31:39;2.83;;;2.63;;
11303;SDS011;5707;49.588;12.148;2022-11-20T14:34:10;2.30;;;2.20;;
11303;SDS011;5707;49.588;12.148;2022-11-20T14:36:40;3.25;;;3.05;;
11303;SDS011;5707;49.588;12.148;2022-11-20T14:39:10;4.15;;;3.85;;
11303;SDS011;5707;49.588;12.148;2022-11-20T14:41:37;4.53;;;4.22;;
11303;SDS011;5707;49.588;12.148;2022-11-20T14:44:03;4.65;;;4.35;;
11303;SDS011;5707;49.588;12.148;2022-11-20T14:46:29;5.40;;;5.10;;
11303;SDS011;5707;49.588;12.148;2022-11-20T14:48:56;4.63;;;4.22;;
11303;SDS011;5707;49.588;12.148;2022-11-20T14:51:36;4.32;;;4.03;;
11303;SDS011;5707;49.588;12.148;2022-11-20T14:59:26;3.45;;;3.22;;
11303;SDS011;5707;49.588;12.148;2022-11-20T15:04:24;5.53;;;4.20;;
11303;SDS011;5707;49.588;12.148;2022-11-20T15:06:51;4.78;;;4.30;;
11303;SDS011;5707;49.588;12.148;2022-11-20T15:09:19;4.82;;;4.43;;
11303;SDS011;5707;49.588;12.148;2022-11-20T15:11:54;6.07;;;5.68;;
11303;SDS011;5707;49.588;12.148;2022-11-20T15:14:25;5.35;;;4.72;;
11303;SDS011;5707;49.588;12.148;2022-11-20T15:16:52;6.60;;;6.00;;
11303;SDS011;5707;49.588;12.148;2022-11-20T15:19:20;7.05;;;6.65;;
11303;SDS011;5707;49.588;12.148;2022-11-20T15:21:47;5.40;;;5.10;;
11303;SDS011;5707;49.588;12.148;2022-11-20T15:24:13;4.70;;;4.40;;
11303;SDS011;5707;49.588;12.148;2022-11-20T15:26:39;3.25;;;3.05;;
11303;SDS011;5707;49.588;12.148;2022-11-20T15:29:08;2.67;;;2.47;;
11303;SDS011;5707;49.588;12.148;2022-11-20T15:31:36;3.35;;;3.08;;
11303;SDS011;5707;49.588;12.148;2022-11-20T15:34:02;3.38;;;3.17;;
11303;SDS011;5707;49.588;12.148;2022-11-20T15:36:31;2.90;;;2.70;;
11303;SDS011;5707;49.588;12.148;2022-11-20T15:38:57;2.92;;;2.72;;
11303;SDS011;5707;49.588;12.148;2022-11-20T15:41:22;3.60;;;3.30;;
11303;SDS011;5707;49.588;12.148;2022-11-20T15:43:48;3.10;;;2.90;;
11303;SDS011;5707;49.588;12.148;2022-11-20T15:46:15;3.30;;;3.10;;
11303;SDS011;5707;49.588;12.148;2022-11-20T15:48:53;2.75;;;2.55;;
11303;SDS011;5707;49.588;12.148;2022-11-20T15:51:22;3.05;;;2.85;;
11303;SDS011;5707;49.588;12.148;2022-11-20T15:53:52;3.70;;;3.50;;
11303;SDS011;5707;49.588;12.148;2022-11-20T15:56:17;3.90;;;3.63;;
11303;SDS011;5707;49.588;12.148;2022-11-20T15:58:43;3.13;;;2.83;;
11303;SDS011;5707;49.588;12.148;2022-11-20T16:01:10;6.22;;;5.82;;
11303;SDS011;5707;49.588;12.148;2022-11-20T16:03:40;4.82;;;4.53;;
11303;SDS011;5707;49.588;12.148;2022-11-20T16:06:06;4.25;;;3.95;;
11303;SDS011;5707;49.588;12.148;2022-11-20T16:08:32;3.20;;;3.00;;
11303;SDS011;5707;49.588;12.148;2022-11-20T16:10:58;4.35;;;3.95;;
11303;SDS011;5707;49.588;12.148;2022-11-20T16:13:24;5.60;;;5.10;;
11303;SDS011;5707;49.588;12.148;2022-11-20T16:16:11;10.70;;;10.00;;
11303;SDS011;5707;49.588;12.148;2022-11-20T16:18:44;15.55;;;14.25;;
11303;SDS011;5707;49.588;12.148;2022-11-20T16:21:12;7.32;;;6.72;;
11303;SDS011;5707;49.588;12.148;2022-11-20T16:23:38;11.48;;;10.32;;
11303;SDS011;5707;49.588;12.148;2022-11-20T16:26:11;11.38;;;10.48;;
11303;SDS011;5707;49.588;12.148;2022-11-20T16:28:39;12.57;;;11.45;;
11303;SDS011;5707;49.588;12.148;2022-11-20T16:31:11;5.95;;;5.55;;
11303;SDS011;5707;49.588;12.148;2022-11-20T16:33:39;4.13;;;3.83;;